CSN443 EDDF-ZSPD
Flight info
| Callsign | CSN443 |
|---|---|
| Flight time | N/A |
| Altitude | 37000 |
| Route | TOBAK1S TOBAK N858 FEDZA Y172 MAG DCT GILAS DCT BOKSU DCT LAFAT/K0891F370 DCT INKUZ DCT BENIM DCT RATIN N869 BAPUN P874 DIKIN M61 OBETU/K0902F390 M61 SUMOM P983 ABESA L158 TR P982 DARNO/K0887S1190 A575 LUBSO/K0896S1250 A575 UDA Y345 POLHO W33 NUVPU W52 MUDAM/K0898S1220 G212 SOTMU W98 ELKUR W40 DOXAB/K0904S1250 W40 YQG/K0909S1220 W142 DALIM/K0906S1250 A593 DPX A470 DALNU W166 ZJ W167 SASAN R343 EKIMU |
| Aircraft | A359/H-SDE2E3GHIJ3J4J5LM1ORWXY/LB1D1 |
Departure
| Time | 2026-05-04 03:07 |
|---|---|
| Airport | Frankfurt Main Airport (EDDF) |
Arrival
| Time | N/A |
|---|---|
| Airport | Shanghai Pudong International Airport (ZSPD) |
| Time | Latitude | Longitude | Altitude | Speed | Heading |
|---|---|---|---|---|---|
| 2026-05-04 02:46 | 50.04653 | 8.57051 | 368 ft | 0 kts | 91° |
| 2026-05-04 02:55 | 50.04653 | 8.57048 | 362 ft | 2 kts | 91° |
| 2026-05-04 02:56 | 50.04654 | 8.57023 | 364 ft | 2 kts | 97° |
| 2026-05-04 02:56 | 50.04658 | 8.56998 | 368 ft | 2 kts | 109° |
| 2026-05-04 02:56 | 50.04665 | 8.56975 | 366 ft | 2 kts | 130° |
| 2026-05-04 02:56 | 50.04678 | 8.56960 | 367 ft | 2 kts | 168° |
| 2026-05-04 02:57 | 50.04690 | 8.56960 | 366 ft | 1 kts | 199° |
| 2026-05-04 02:57 | 50.04691 | 8.56960 | 366 ft | 0 kts | 200° |
| 2026-05-04 02:59 | 50.04667 | 8.56943 | 369 ft | 9 kts | 205° |
| 2026-05-04 02:59 | 50.04602 | 8.56911 | 367 ft | 11 kts | 193° |
| 2026-05-04 02:59 | 50.04532 | 8.56885 | 367 ft | 10 kts | 193° |
| 2026-05-04 02:59 | 50.04457 | 8.56857 | 369 ft | 12 kts | 193° |
| 2026-05-04 03:00 | 50.04372 | 8.56838 | 372 ft | 13 kts | 190° |
| 2026-05-04 03:00 | 50.04281 | 8.56806 | 371 ft | 14 kts | 202° |
| 2026-05-04 03:00 | 50.04223 | 8.56678 | 370 ft | 16 kts | 245° |
| 2026-05-04 03:00 | 50.04179 | 8.56499 | 367 ft | 19 kts | 249° |
| 2026-05-04 03:01 | 50.04131 | 8.56297 | 361 ft | 21 kts | 250° |
| 2026-05-04 03:01 | 50.04080 | 8.56080 | 365 ft | 22 kts | 250° |
| 2026-05-04 03:01 | 50.04024 | 8.55852 | 364 ft | 23 kts | 248° |
| 2026-05-04 03:01 | 50.03963 | 8.55614 | 364 ft | 24 kts | 249° |
| 2026-05-04 03:02 | 50.03911 | 8.55376 | 359 ft | 23 kts | 252° |
| 2026-05-04 03:02 | 50.03853 | 8.55139 | 362 ft | 23 kts | 249° |
| 2026-05-04 03:02 | 50.03798 | 8.54901 | 362 ft | 24 kts | 250° |
| 2026-05-04 03:02 | 50.03738 | 8.54653 | 359 ft | 25 kts | 249° |
| 2026-05-04 03:03 | 50.03674 | 8.54390 | 355 ft | 26 kts | 249° |
| 2026-05-04 03:03 | 50.03617 | 8.54144 | 355 ft | 23 kts | 251° |
| 2026-05-04 03:03 | 50.03559 | 8.53905 | 351 ft | 24 kts | 250° |
| 2026-05-04 03:03 | 50.03502 | 8.53660 | 354 ft | 24 kts | 249° |
| 2026-05-04 03:04 | 50.03442 | 8.53413 | 355 ft | 25 kts | 250° |
| 2026-05-04 03:04 | 50.03382 | 8.53160 | 351 ft | 26 kts | 249° |
| 2026-05-04 03:04 | 50.03319 | 8.52900 | 336 ft | 23 kts | 254° |
| 2026-05-04 03:04 | 50.03341 | 8.52820 | 350 ft | 3 kts | 359° |
| 2026-05-04 03:05 | 50.03375 | 8.52820 | 344 ft | 7 kts | 360° |
| 2026-05-04 03:05 | 50.03420 | 8.52788 | 349 ft | 8 kts | 306° |
| 2026-05-04 03:05 | 50.03422 | 8.52690 | 353 ft | 11 kts | 253° |
| 2026-05-04 03:05 | 50.03377 | 8.52599 | 351 ft | 10 kts | 192° |
| 2026-05-04 03:06 | 50.03273 | 8.52594 | 352 ft | 32 kts | 181° |
| 2026-05-04 03:06 | 50.02845 | 8.52598 | 347 ft | 89 kts | 179° |
| 2026-05-04 03:06 | 50.02046 | 8.52606 | 337 ft | 138 kts | 180° |
| 2026-05-04 03:06 | 50.00941 | 8.52608 | 409 ft | 172 kts | 180° |
| 2026-05-04 03:07 | 49.99781 | 8.52612 | 1040 ft | 166 kts | 180° |
| 2026-05-04 03:07 | 49.98632 | 8.52583 | 1603 ft | 165 kts | 187° |
| 2026-05-04 03:07 | 49.97577 | 8.52004 | 2107 ft | 161 kts | 217° |
| 2026-05-04 03:07 | 49.96726 | 8.50868 | 2533 ft | 164 kts | 225° |
| 2026-05-04 03:08 | 49.95914 | 8.49620 | 2955 ft | 167 kts | 226° |
| 2026-05-04 03:08 | 49.95083 | 8.48343 | 3405 ft | 169 kts | 226° |
| 2026-05-04 03:08 | 49.94244 | 8.47071 | 3835 ft | 169 kts | 226° |
| 2026-05-04 03:08 | 49.93400 | 8.45798 | 4271 ft | 169 kts | 226° |
| 2026-05-04 03:09 | 49.92558 | 8.44520 | 4664 ft | 172 kts | 226° |
| 2026-05-04 03:09 | 49.91659 | 8.43169 | 4886 ft | 187 kts | 226° |
| 2026-05-04 03:09 | 49.90671 | 8.41689 | 5042 ft | 207 kts | 226° |
| 2026-05-04 03:09 | 49.89602 | 8.40092 | 5285 ft | 224 kts | 226° |
| 2026-05-04 03:10 | 49.88438 | 8.38349 | 5562 ft | 240 kts | 226° |
| 2026-05-04 03:10 | 49.87413 | 8.36243 | 5994 ft | 248 kts | 246° |
| 2026-05-04 03:10 | 49.87157 | 8.33603 | 6574 ft | 254 kts | 276° |
| 2026-05-04 03:10 | 49.87807 | 8.31033 | 7179 ft | 262 kts | 297° |
| 2026-05-04 03:11 | 49.88797 | 8.28629 | 7825 ft | 266 kts | 300° |
| 2026-05-04 03:11 | 49.89824 | 8.26229 | 8506 ft | 269 kts | 299° |
| 2026-05-04 03:11 | 49.90853 | 8.23797 | 9213 ft | 270 kts | 299° |
| 2026-05-04 03:11 | 49.91895 | 8.21346 | 9909 ft | 274 kts | 301° |
| 2026-05-04 03:12 | 49.93240 | 8.19149 | 10388 ft | 293 kts | 320° |
| 2026-05-04 03:12 | 49.95194 | 8.17907 | 10645 ft | 321 kts | 348° |
| 2026-05-04 03:12 | 49.97486 | 8.18228 | 10912 ft | 345 kts | 16° |
| 2026-05-04 03:12 | 49.98992 | 8.19154 | 11115 ft | 357 kts | 22° |
| 2026-05-04 03:13 | 50.02086 | 8.21409 | 11498 ft | 377 kts | 23° |
| 2026-05-04 03:13 | 50.04510 | 8.23171 | 11785 ft | 390 kts | 23° |
| 2026-05-04 03:13 | 50.06973 | 8.24931 | 12277 ft | 397 kts | 22° |
| 2026-05-04 03:13 | 50.09502 | 8.26720 | 12830 ft | 401 kts | 22° |
| 2026-05-04 03:14 | 50.11229 | 8.27937 | 13235 ft | 404 kts | 22° |
| 2026-05-04 03:14 | 50.14649 | 8.30341 | 13937 ft | 411 kts | 22° |
| 2026-05-04 03:14 | 50.16386 | 8.31560 | 14245 ft | 414 kts | 22° |
| 2026-05-04 03:14 | 50.19023 | 8.33411 | 14776 ft | 417 kts | 22° |
| 2026-05-04 03:15 | 50.21684 | 8.35280 | 15303 ft | 420 kts | 22° |
| 2026-05-04 03:15 | 50.24361 | 8.37162 | 15829 ft | 423 kts | 22° |
| 2026-05-04 03:15 | 50.27062 | 8.39067 | 16354 ft | 427 kts | 23° |
| 2026-05-04 03:15 | 50.29652 | 8.41383 | 16848 ft | 432 kts | 36° |
| 2026-05-04 03:16 | 50.31978 | 8.44393 | 17355 ft | 436 kts | 40° |
| 2026-05-04 03:16 | 50.34257 | 8.47568 | 17867 ft | 439 kts | 41° |
| 2026-05-04 03:16 | 50.36538 | 8.50762 | 18510 ft | 439 kts | 41° |
| 2026-05-04 03:16 | 50.38793 | 8.53913 | 18966 ft | 442 kts | 41° |
| 2026-05-04 03:17 | 50.41097 | 8.57128 | 19388 ft | 446 kts | 40° |
| 2026-05-04 03:17 | 50.43428 | 8.60380 | 19859 ft | 450 kts | 40° |
| 2026-05-04 03:17 | 50.45785 | 8.63647 | 20334 ft | 453 kts | 39° |
| 2026-05-04 03:17 | 50.48210 | 8.66843 | 20821 ft | 456 kts | 38° |
| 2026-05-04 03:18 | 50.50665 | 8.70040 | 21308 ft | 460 kts | 38° |
| 2026-05-04 03:18 | 50.53133 | 8.73267 | 21767 ft | 463 kts | 39° |
| 2026-05-04 03:18 | 50.55595 | 8.76594 | 22232 ft | 468 kts | 42° |
| 2026-05-04 03:18 | 50.57733 | 8.80464 | 22601 ft | 474 kts | 55° |
| 2026-05-04 03:19 | 50.59523 | 8.84856 | 23061 ft | 478 kts | 59° |
| 2026-05-04 03:19 | 50.61153 | 8.89370 | 23526 ft | 481 kts | 62° |
| 2026-05-04 03:19 | 50.62741 | 8.94033 | 23930 ft | 485 kts | 62° |
| 2026-05-04 03:19 | 50.64322 | 8.98764 | 24301 ft | 488 kts | 63° |
| 2026-05-04 03:20 | 50.65912 | 9.03514 | 24687 ft | 491 kts | 62° |
| 2026-05-04 03:20 | 50.67525 | 9.08284 | 25067 ft | 494 kts | 62° |
| 2026-05-04 03:20 | 50.69159 | 9.13075 | 25447 ft | 497 kts | 62° |
| 2026-05-04 03:20 | 50.70809 | 9.17885 | 25827 ft | 501 kts | 62° |
| 2026-05-04 03:21 | 50.72476 | 9.22739 | 26200 ft | 504 kts | 62° |
| 2026-05-04 03:21 | 50.74091 | 9.27660 | 26575 ft | 506 kts | 64° |
| 2026-05-04 03:21 | 50.75658 | 9.32662 | 26944 ft | 509 kts | 64° |
| 2026-05-04 03:21 | 50.77213 | 9.37718 | 27312 ft | 512 kts | 64° |
| 2026-05-04 03:22 | 50.78752 | 9.42742 | 27681 ft | 515 kts | 64° |
| 2026-05-04 03:22 | 50.80321 | 9.47840 | 28048 ft | 518 kts | 64° |
| 2026-05-04 03:22 | 50.81907 | 9.52968 | 28381 ft | 521 kts | 64° |
| 2026-05-04 03:22 | 50.83507 | 9.58128 | 28717 ft | 523 kts | 63° |
| 2026-05-04 03:23 | 50.85116 | 9.63312 | 29036 ft | 526 kts | 63° |
| 2026-05-04 03:23 | 50.86732 | 9.68521 | 29370 ft | 529 kts | 63° |
| 2026-05-04 03:23 | 50.88356 | 9.73762 | 29678 ft | 531 kts | 63° |
| 2026-05-04 03:23 | 50.89979 | 9.79026 | 29962 ft | 534 kts | 64° |
| 2026-05-04 03:24 | 50.91605 | 9.84323 | 30228 ft | 536 kts | 64° |
| 2026-05-04 03:24 | 50.93233 | 9.89644 | 30642 ft | 534 kts | 64° |
| 2026-05-04 03:24 | 50.94844 | 9.94922 | 31076 ft | 531 kts | 64° |
| 2026-05-04 03:24 | 50.96444 | 10.00163 | 31644 ft | 525 kts | 64° |
| 2026-05-04 03:25 | 50.98029 | 10.05362 | 32016 ft | 523 kts | 64° |
| 2026-05-04 03:25 | 50.99613 | 10.10580 | 32281 ft | 524 kts | 64° |
| 2026-05-04 03:25 | 51.01173 | 10.15736 | 32580 ft | 524 kts | 65° |
| 2026-05-04 03:25 | 51.02751 | 10.20956 | 32910 ft | 523 kts | 65° |
| 2026-05-04 03:26 | 51.04322 | 10.26168 | 33210 ft | 523 kts | 65° |
| 2026-05-04 03:26 | 51.06015 | 10.31289 | 33494 ft | 522 kts | 59° |
| 2026-05-04 03:26 | 51.08085 | 10.36030 | 33767 ft | 522 kts | 50° |
| 2026-05-04 03:26 | 51.10583 | 10.40214 | 34006 ft | 521 kts | 40° |
| 2026-05-04 03:27 | 51.13468 | 10.43660 | 34219 ft | 518 kts | 30° |
| 2026-05-04 03:27 | 51.16630 | 10.46266 | 34432 ft | 515 kts | 22° |
| 2026-05-04 03:27 | 51.19830 | 10.49009 | 34636 ft | 517 kts | 30° |
| 2026-05-04 03:27 | 51.22831 | 10.52009 | 34859 ft | 516 kts | 31° |
| 2026-05-04 03:28 | 51.25865 | 10.55100 | 35042 ft | 516 kts | 31° |
| 2026-05-04 03:28 | 51.28878 | 10.58225 | 35246 ft | 516 kts | 31° |
| 2026-05-04 03:28 | 51.31874 | 10.61380 | 35480 ft | 515 kts | 32° |
| 2026-05-04 03:28 | 51.34859 | 10.64551 | 35662 ft | 515 kts | 32° |
| 2026-05-04 03:29 | 51.37845 | 10.67741 | 35812 ft | 515 kts | 32° |
| 2026-05-04 03:29 | 51.40797 | 10.70994 | 35992 ft | 515 kts | 34° |
| 2026-05-04 03:29 | 51.43670 | 10.74421 | 36194 ft | 515 kts | 36° |
| 2026-05-04 03:29 | 51.46507 | 10.77937 | 36353 ft | 514 kts | 37° |
| 2026-05-04 03:30 | 51.49333 | 10.81472 | 36526 ft | 514 kts | 37° |
| 2026-05-04 03:30 | 51.52043 | 10.85108 | 36661 ft | 515 kts | 43° |
| 2026-05-04 03:30 | 51.54494 | 10.89310 | 36826 ft | 515 kts | 49° |
| 2026-05-04 03:31 | 51.59129 | 10.98193 | 36959 ft | 518 kts | 51° |
| 2026-05-04 03:31 | 51.63666 | 11.07213 | 36970 ft | 523 kts | 51° |
| 2026-05-04 03:32 | 51.68238 | 11.16356 | 36961 ft | 523 kts | 51° |
| 2026-05-04 03:32 | 51.72801 | 11.25480 | 36961 ft | 523 kts | 51° |
| 2026-05-04 03:33 | 51.77366 | 11.34621 | 36969 ft | 523 kts | 51° |
| 2026-05-04 03:33 | 51.81922 | 11.43772 | 36965 ft | 523 kts | 51° |
| 2026-05-04 03:34 | 51.86485 | 11.52973 | 36966 ft | 523 kts | 51° |
| 2026-05-04 03:34 | 51.91005 | 11.62117 | 36963 ft | 523 kts | 51° |
| 2026-05-04 03:35 | 51.95544 | 11.71337 | 36964 ft | 523 kts | 51° |
| 2026-05-04 03:35 | 51.99697 | 11.81014 | 36955 ft | 523 kts | 64° |
| 2026-05-04 03:36 | 52.02633 | 11.91818 | 36943 ft | 523 kts | 69° |
| 2026-05-04 03:36 | 52.05330 | 12.02790 | 36945 ft | 523 kts | 70° |
| 2026-05-04 03:37 | 52.07988 | 12.13793 | 36949 ft | 523 kts | 70° |
| 2026-05-04 03:37 | 52.10625 | 12.24683 | 36945 ft | 523 kts | 69° |
| 2026-05-04 03:38 | 52.13242 | 12.35486 | 36949 ft | 523 kts | 69° |
| 2026-05-04 03:38 | 52.15910 | 12.46539 | 36945 ft | 524 kts | 69° |
| 2026-05-04 03:39 | 52.18563 | 12.57585 | 36951 ft | 524 kts | 69° |
| 2026-05-04 03:39 | 52.21205 | 12.68645 | 36949 ft | 524 kts | 69° |
| 2026-05-04 03:40 | 52.23839 | 12.79734 | 36948 ft | 524 kts | 70° |
| 2026-05-04 03:40 | 52.26451 | 12.90784 | 36951 ft | 524 kts | 70° |
| 2026-05-04 03:41 | 52.29064 | 13.01892 | 36961 ft | 522 kts | 70° |
| 2026-05-04 03:41 | 52.31657 | 13.12975 | 36943 ft | 522 kts | 70° |
| 2026-05-04 03:42 | 52.34241 | 13.24080 | 36939 ft | 522 kts | 70° |
| 2026-05-04 03:42 | 52.36812 | 13.35185 | 36938 ft | 522 kts | 70° |
| 2026-05-04 03:43 | 52.39359 | 13.46241 | 36939 ft | 522 kts | 70° |
| 2026-05-04 03:43 | 52.41910 | 13.57377 | 36935 ft | 521 kts | 70° |
| 2026-05-04 03:44 | 52.44446 | 13.68501 | 36940 ft | 520 kts | 70° |
| 2026-05-04 03:44 | 52.46967 | 13.79619 | 36939 ft | 520 kts | 71° |
| 2026-05-04 03:45 | 52.49477 | 13.90749 | 36937 ft | 521 kts | 71° |
| 2026-05-04 03:45 | 52.51982 | 14.01916 | 36931 ft | 521 kts | 71° |
| 2026-05-04 03:46 | 52.54476 | 14.13093 | 36920 ft | 520 kts | 71° |
| 2026-05-04 03:46 | 52.56932 | 14.24158 | 36933 ft | 517 kts | 71° |
| 2026-05-04 03:47 | 52.59382 | 14.35256 | 36933 ft | 516 kts | 71° |
| 2026-05-04 03:47 | 52.61821 | 14.46364 | 36930 ft | 516 kts | 71° |
| 2026-05-04 03:48 | 52.64272 | 14.57471 | 36938 ft | 516 kts | 70° |
| 2026-05-04 03:48 | 52.66910 | 14.68459 | 36932 ft | 517 kts | 69° |
| 2026-05-04 03:49 | 52.69595 | 14.79463 | 36935 ft | 516 kts | 69° |
| 2026-05-04 03:49 | 52.72241 | 14.90497 | 36932 ft | 517 kts | 70° |
| 2026-05-04 03:50 | 52.74837 | 15.01477 | 36930 ft | 516 kts | 70° |
| 2026-05-04 03:50 | 52.77442 | 15.12572 | 36944 ft | 517 kts | 70° |
| 2026-05-04 03:51 | 52.80026 | 15.23628 | 36931 ft | 517 kts | 70° |
| 2026-05-04 03:51 | 52.82611 | 15.34745 | 36936 ft | 517 kts | 70° |
| 2026-05-04 03:52 | 52.85175 | 15.45824 | 36935 ft | 516 kts | 70° |
| 2026-05-04 03:52 | 52.87723 | 15.56893 | 36939 ft | 516 kts | 70° |
| 2026-05-04 03:53 | 52.90270 | 15.68015 | 36935 ft | 516 kts | 70° |
| 2026-05-04 03:53 | 52.92806 | 15.79151 | 36940 ft | 516 kts | 71° |
| 2026-05-04 03:54 | 52.95340 | 15.90336 | 36922 ft | 517 kts | 70° |
| 2026-05-04 03:54 | 52.97858 | 16.01511 | 36937 ft | 517 kts | 70° |
| 2026-05-04 03:55 | 53.00348 | 16.12612 | 36934 ft | 517 kts | 70° |
| 2026-05-04 03:55 | 53.02846 | 16.23813 | 36937 ft | 517 kts | 71° |
| 2026-05-04 03:56 | 53.05332 | 16.35022 | 36932 ft | 517 kts | 71° |
| 2026-05-04 03:56 | 53.07807 | 16.46243 | 36934 ft | 517 kts | 71° |
| 2026-05-04 03:57 | 53.10270 | 16.57468 | 36933 ft | 516 kts | 71° |
| 2026-05-04 03:57 | 53.12726 | 16.68726 | 36929 ft | 516 kts | 71° |
| 2026-05-04 03:58 | 53.16372 | 16.85548 | 36925 ft | 517 kts | 71° |
| 2026-05-04 03:58 | 53.18798 | 16.96816 | 36926 ft | 517 kts | 71° |
| 2026-05-04 03:59 | 53.21214 | 17.08103 | 36927 ft | 517 kts | 71° |
| 2026-05-04 03:59 | 53.23217 | 17.17508 | 36922 ft | 516 kts | 71° |
| 2026-05-04 04:00 | 53.25606 | 17.28781 | 36927 ft | 514 kts | 71° |
| 2026-05-04 04:00 | 53.27982 | 17.40060 | 36922 ft | 515 kts | 71° |
| 2026-05-04 04:01 | 53.30349 | 17.51355 | 36922 ft | 514 kts | 71° |
| 2026-05-04 04:01 | 53.32708 | 17.62676 | 36922 ft | 514 kts | 71° |
| 2026-05-04 04:02 | 53.35053 | 17.73999 | 36906 ft | 514 kts | 71° |
| 2026-05-04 04:02 | 53.37369 | 17.85242 | 36917 ft | 513 kts | 71° |
| 2026-05-04 04:03 | 53.39687 | 17.96556 | 36923 ft | 513 kts | 71° |
| 2026-05-04 04:03 | 53.41991 | 18.07865 | 36916 ft | 513 kts | 71° |
| 2026-05-04 04:04 | 53.44286 | 18.19196 | 36916 ft | 513 kts | 72° |
| 2026-05-04 04:04 | 53.46574 | 18.30563 | 36916 ft | 513 kts | 72° |
| 2026-05-04 04:05 | 53.48836 | 18.41864 | 36919 ft | 512 kts | 72° |
| 2026-05-04 04:05 | 53.51101 | 18.53241 | 36911 ft | 510 kts | 72° |
| 2026-05-04 04:06 | 53.53330 | 18.64508 | 36911 ft | 510 kts | 72° |
| 2026-05-04 04:06 | 53.55560 | 18.75843 | 36914 ft | 511 kts | 72° |
| 2026-05-04 04:07 | 53.57781 | 18.87200 | 36911 ft | 511 kts | 72° |
| 2026-05-04 04:07 | 53.59990 | 18.98563 | 36911 ft | 511 kts | 72° |
| 2026-05-04 04:08 | 53.62190 | 19.09946 | 36916 ft | 509 kts | 72° |
| 2026-05-04 04:08 | 53.64352 | 19.21203 | 36908 ft | 508 kts | 72° |
| 2026-05-04 04:09 | 53.66516 | 19.32531 | 36911 ft | 508 kts | 72° |
| 2026-05-04 04:09 | 53.68672 | 19.43889 | 36913 ft | 508 kts | 72° |
| 2026-05-04 04:10 | 53.70818 | 19.55258 | 36911 ft | 509 kts | 72° |
| 2026-05-04 04:10 | 53.72955 | 19.66656 | 36908 ft | 509 kts | 72° |
| 2026-05-04 04:11 | 53.75078 | 19.78039 | 36908 ft | 507 kts | 72° |
| 2026-05-04 04:11 | 53.77183 | 19.89399 | 36908 ft | 507 kts | 72° |
| 2026-05-04 04:12 | 53.79280 | 20.00788 | 36905 ft | 507 kts | 72° |
| 2026-05-04 04:12 | 53.81367 | 20.12187 | 36909 ft | 507 kts | 72° |
| 2026-05-04 04:13 | 53.83430 | 20.23532 | 36906 ft | 507 kts | 73° |
| 2026-05-04 04:13 | 53.85502 | 20.34992 | 36902 ft | 507 kts | 73° |
| 2026-05-04 04:14 | 53.87550 | 20.46391 | 36903 ft | 505 kts | 73° |
| 2026-05-04 04:14 | 53.89578 | 20.57752 | 36906 ft | 505 kts | 73° |
| 2026-05-04 04:15 | 53.91595 | 20.69120 | 36900 ft | 505 kts | 73° |
| 2026-05-04 04:15 | 53.93612 | 20.80560 | 36911 ft | 505 kts | 73° |
| 2026-05-04 04:16 | 53.95610 | 20.91965 | 36912 ft | 505 kts | 73° |
| 2026-05-04 04:16 | 53.97605 | 21.03427 | 36909 ft | 506 kts | 73° |
| 2026-05-04 04:17 | 53.99596 | 21.14938 | 36914 ft | 506 kts | 73° |
| 2026-05-04 04:17 | 54.01574 | 21.26451 | 36911 ft | 506 kts | 73° |
| 2026-05-04 04:18 | 54.03527 | 21.37892 | 36911 ft | 506 kts | 73° |